createdAt,value
2023-08-16T02:43:41.999Z,91.02
2023-08-16T02:47:45.606Z,90.89
2023-08-16T02:51:48.804Z,90.78
2023-08-16T06:05:23.545Z,30.99
2023-08-16T06:09:29.816Z,30.36
2023-08-16T06:13:33.061Z,31.96
2023-08-16T06:17:36.428Z,30.61
2023-08-16T06:21:41.506Z,30.01
2023-08-16T06:25:44.775Z,28.80
2023-08-16T06:29:47.782Z,28.34
2023-08-16T06:33:50.948Z,29.69
2023-08-16T06:37:55.449Z,28.12
2023-08-16T06:41:58.520Z,25.56
2023-08-16T06:46:01.433Z,25.33
2023-08-16T06:50:07.613Z,25.62
2023-08-16T06:54:13.313Z,24.28
2023-08-16T06:58:16.385Z,23.89
2023-08-16T07:02:22.358Z,26.21
2023-08-16T07:06:27.912Z,25.81
2023-08-16T07:10:32.149Z,25.58
2023-08-16T07:14:35.487Z,24.72
2023-08-16T07:18:38.755Z,27.71
2023-08-16T07:22:42.069Z,22.28
2023-08-16T07:26:46.477Z,23.02
2023-08-16T07:30:49.447Z,23.65
2023-08-16T07:34:52.552Z,25.23
2023-08-16T07:38:55.582Z,23.38
2023-08-16T07:43:00.092Z,22.48
2023-08-16T07:47:03.155Z,24.27
2023-08-16T07:51:06.421Z,24.19
2023-08-16T07:55:10.822Z,19.62
2023-08-16T07:59:15.473Z,22.04
2023-08-16T08:03:19.151Z,21.57
2023-08-16T08:07:22.167Z,25.72
2023-08-16T08:11:25.098Z,23.65
2023-08-16T08:15:31.142Z,27.73
2023-08-16T08:19:34.276Z,23.56
2023-08-16T08:23:37.216Z,28.82
2023-08-16T08:27:40.570Z,30.57
2023-08-16T08:31:45.629Z,27.12
2023-08-16T08:35:49.688Z,23.09
2023-08-16T08:39:52.837Z,21.46
2023-08-16T08:44:00.124Z,18.47
2023-08-16T08:48:05.552Z,19.07
2023-08-16T08:52:09.748Z,21.20
2023-08-16T08:56:18.552Z,20.47
2023-08-16T09:00:26.326Z,20.90
2023-08-16T09:04:37.724Z,20.02
2023-08-16T09:08:45.255Z,20.56
2023-08-16T09:12:48.641Z,19.65
2023-08-16T09:16:52.040Z,21.36
2023-08-16T09:21:00.473Z,21.43
2023-08-16T09:25:04.699Z,18.59
2023-08-16T09:29:08.287Z,17.62
2023-08-16T09:33:14.943Z,19.43
2023-08-16T09:37:21.404Z,20.42
2023-08-16T09:41:24.130Z,20.15
2023-08-16T09:45:34.189Z,20.24
2023-08-16T09:49:38.239Z,18.68
2023-08-16T09:53:49.711Z,19.18
2023-08-16T09:57:53.596Z,20.42
2023-08-16T10:02:13.637Z,21.68
2023-08-16T10:06:20.482Z,22.70
2023-08-16T10:10:25.596Z,25.29
2023-08-16T10:14:28.955Z,23.44
2023-08-16T10:18:33.272Z,23.72
2023-08-16T10:22:42.029Z,23.23
2023-08-16T10:26:50.470Z,24.03
2023-08-16T10:35:02.959Z,24.33
2023-08-16T10:39:09.968Z,23.37
2023-08-16T10:47:31.232Z,25.85
2023-08-16T10:51:45.115Z,25.94
2023-08-16T10:55:54.364Z,24.20
2023-08-16T11:00:07.415Z,23.51
2023-08-16T11:04:10.502Z,22.99
2023-08-16T11:08:14.521Z,24.70
2023-08-16T11:12:20.330Z,25.54
2023-08-16T11:16:26.092Z,25.29
2023-08-16T11:20:30.680Z,24.50
2023-08-16T11:24:38.232Z,24.62
2023-08-16T11:28:44.120Z,26.71
2023-08-16T11:32:49.044Z,26.09
2023-08-16T11:36:54.839Z,25.81
2023-08-16T11:40:58.198Z,25.48
2023-08-16T11:45:01.965Z,25.36
2023-08-16T11:49:09.768Z,24.35
2023-08-16T11:53:18.527Z,24.21
2023-08-16T11:57:21.861Z,24.10
2023-08-16T12:01:27.716Z,25.06
2023-08-16T12:05:37.716Z,24.61
2023-08-16T12:09:42.123Z,24.88
2023-08-16T12:13:45.220Z,28.23
2023-08-16T12:17:48.283Z,27.68
2023-08-16T12:21:54.352Z,27.99
2023-08-16T12:25:58.459Z,26.65
2023-08-16T12:30:01.770Z,27.51
2023-08-16T12:34:07.298Z,27.06
2023-08-16T12:38:14.372Z,26.56
2023-08-16T12:42:17.495Z,27.50
2023-08-16T12:46:20.699Z,28.08
2023-08-16T12:50:24.161Z,28.69
2023-08-16T12:54:28.566Z,28.41
2023-08-16T12:58:34.522Z,30.07
2023-08-16T13:02:38.046Z,28.02
2023-08-16T13:06:52.551Z,27.65
2023-08-16T13:11:08.480Z,28.82
2023-08-16T13:15:26.310Z,28.49
2023-08-16T13:24:08.198Z,29.88
2023-08-16T13:28:20.110Z,30.91
2023-08-16T13:32:27.530Z,29.08
2023-08-16T13:40:52.378Z,32.52
2023-08-16T13:49:03.648Z,28.44
2023-08-16T13:53:09.804Z,33.31
2023-08-16T13:57:12.855Z,31.02
2023-08-16T14:01:18.052Z,30.44
2023-08-16T14:05:21.324Z,33.00
2023-08-16T14:09:24.523Z,31.62
2023-08-16T14:13:28.648Z,33.07
2023-08-16T14:17:35.453Z,32.14
2023-08-16T14:21:42.502Z,32.87
2023-08-16T14:25:51.015Z,32.43
2023-08-16T14:29:54.164Z,32.88
2023-08-16T14:33:58.557Z,31.40
2023-08-16T14:38:03.103Z,32.82
2023-08-16T14:42:06.355Z,33.42
2023-08-16T14:46:09.538Z,33.59
2023-08-16T14:50:18.452Z,34.37
2023-08-16T14:54:21.222Z,34.66
2023-08-16T14:58:23.847Z,35.84
2023-08-16T15:02:27.364Z,36.96
2023-08-16T15:06:32.756Z,36.13
2023-08-16T15:10:35.965Z,36.68
2023-08-16T15:14:38.402Z,37.49
2023-08-16T15:18:41.579Z,35.84
2023-08-16T15:22:46.361Z,35.68
2023-08-16T15:26:49.498Z,37.56
2023-08-16T15:30:57.894Z,35.07
2023-08-16T15:35:03.372Z,35.09
2023-08-16T15:39:08.690Z,36.81
2023-08-16T15:43:11.783Z,38.01
2023-08-16T15:47:15.214Z,38.47
2023-08-16T15:51:18.296Z,38.00
2023-08-16T15:55:22.756Z,41.04
2023-08-16T15:59:31.508Z,39.80
2023-08-16T16:03:41.808Z,39.26
2023-08-16T16:07:45.987Z,40.78
2023-08-16T16:11:50.366Z,42.99
2023-08-16T16:15:53.486Z,41.12
2023-08-16T16:19:57.003Z,44.18
2023-08-16T16:24:00.457Z,44.74
2023-08-16T16:28:05.620Z,43.48
2023-08-16T16:32:09.373Z,43.27
2023-08-16T16:44:02.054Z,48.73
2023-08-16T16:48:05.997Z,50.41
2023-08-16T16:52:09.307Z,52.29
2023-08-16T16:56:12.575Z,51.54
2023-08-16T17:00:18.208Z,57.55
2023-08-16T17:04:21.444Z,55.42
2023-08-16T17:08:27.798Z,58.26
2023-08-16T17:12:31.231Z,57.31
2023-08-16T17:16:38.985Z,59.32
2023-08-16T17:20:41.971Z,61.42
2023-08-16T17:24:45.405Z,64.46
2023-08-16T17:28:49.132Z,61.64
2023-08-16T17:32:54.651Z,64.61
2023-08-16T17:36:57.697Z,63.87
2023-08-16T17:41:02.001Z,63.34
2023-08-16T17:45:05.812Z,64.50
2023-08-16T17:49:10.320Z,62.90
2023-08-16T17:53:13.863Z,63.11
2023-08-16T17:57:17.346Z,65.34
2023-08-16T18:01:20.556Z,65.26
2023-08-16T18:05:24.890Z,64.84
2023-08-16T18:09:28.024Z,65.56
2023-08-16T18:13:31.865Z,65.59
2023-08-16T18:17:36.758Z,67.20
2023-08-16T18:21:41.329Z,67.27
2023-08-16T18:25:44.779Z,66.61
2023-08-16T18:29:47.790Z,66.79
2023-08-16T18:33:50.845Z,67.21
2023-08-16T18:37:56.116Z,67.33
2023-08-16T18:42:01.272Z,68.17
2023-08-16T18:46:04.733Z,68.67
2023-08-16T18:50:09.180Z,68.75
2023-08-16T18:54:13.986Z,68.29
2023-08-16T18:58:19.501Z,68.47
2023-08-16T19:02:25.815Z,70.81
2023-08-16T19:06:29.358Z,69.81
2023-08-16T19:10:33.737Z,69.72
2023-08-16T19:14:38.561Z,69.42
2023-08-16T19:18:42.538Z,69.67
2023-08-16T19:22:45.856Z,70.23
2023-08-16T19:26:50.589Z,70.69
2023-08-16T19:30:56.923Z,70.12
2023-08-16T19:35:01.013Z,72.10
2023-08-16T19:39:05.663Z,73.73
2023-08-16T19:43:10.527Z,73.89
2023-08-16T19:47:13.623Z,74.01
2023-08-16T19:51:23.656Z,73.97
2023-08-16T19:55:26.918Z,73.89
2023-08-16T19:59:31.826Z,75.02
2023-08-16T20:03:35.188Z,75.36
2023-08-16T20:07:41.714Z,73.84
2023-08-16T20:11:46.824Z,73.90
2023-08-16T20:15:54.540Z,74.88
2023-08-16T20:19:57.876Z,75.65
2023-08-16T20:24:01.666Z,76.14
2023-08-16T20:28:05.538Z,76.60
2023-08-16T20:32:16.451Z,77.95
2023-08-16T20:36:19.894Z,77.74
2023-08-16T20:40:23.494Z,79.04
2023-08-16T20:44:31.810Z,79.09
2023-08-16T20:48:36.684Z,79.91
2023-08-16T20:52:42.863Z,80.42
2023-08-16T20:56:49.036Z,79.78
2023-08-16T21:00:52.396Z,79.09
2023-08-16T21:04:57.432Z,78.60
2023-08-16T21:09:00.735Z,78.90
2023-08-16T21:13:04.499Z,78.96
2023-08-16T21:17:08.546Z,79.65
2023-08-16T21:21:12.939Z,79.63
2023-08-16T21:25:16.254Z,80.06
2023-08-16T21:29:20.368Z,80.51
2023-08-16T21:33:23.429Z,80.79
2023-08-16T21:37:28.477Z,81.31
2023-08-16T21:41:31.415Z,81.50
2023-08-16T21:45:34.826Z,81.85
2023-08-16T21:49:37.883Z,82.67
2023-08-16T21:53:42.404Z,81.99
2023-08-16T21:57:45.233Z,82.45
2023-08-16T22:01:48.238Z,82.33
2023-08-16T22:05:52.370Z,82.55
2023-08-16T22:09:57.102Z,82.66
2023-08-16T22:14:00.243Z,82.82
2023-08-16T22:18:06.462Z,81.72
2023-08-16T22:22:09.829Z,82.27
2023-08-16T22:26:14.771Z,82.25
2023-08-16T22:30:17.788Z,82.83
2023-08-16T22:34:22.802Z,82.60
2023-08-16T22:38:27.263Z,82.79
2023-08-16T22:42:36.212Z,82.57
2023-08-16T22:46:40.089Z,82.49
2023-08-16T22:50:46.602Z,83.42
2023-08-16T22:54:49.885Z,83.67
2023-08-16T22:58:54.166Z,85.34
